Time;durP1;ratioP1;P1;durP2;ratioP2;P2;SDS_P1;SDS_P2;PMS_P1;PMS_P2;Temp;Humidity;BMP_temperature;BMP_pressure;BME280_temperature;BME280_humidity;BME280_pressure;Samples;Min_cycle;Max_cycle;Signal;HPM_P1;HPM_P2
2022/04/07 00:00:06;;;;;;;8.27;3.83;;;9.10;99.90;;;;;;4949677;29;20082;-73
2022/04/07 00:02:32;;;;;;;9.10;4.07;;;9.00;99.90;;;;;;4950187;29;20024;-72
2022/04/07 00:04:57;;;;;;;16.30;4.18;;;9.00;99.90;;;;;;4965068;28;20045;-72
2022/04/07 00:07:25;;;;;;;11.35;5.40;;;9.00;99.90;;;;;;4969536;28;20468;-71
2022/04/07 00:09:50;;;;;;;7.38;4.15;;;9.00;99.90;;;;;;4951708;29;20036;-70
2022/04/07 00:12:16;;;;;;;9.52;4.65;;;9.00;99.90;;;;;;4932683;29;20039;-72
2022/04/07 00:14:52;;;;;;;11.13;5.00;;;9.00;99.90;;;;;;4950001;29;20043;-74
2022/04/07 00:17:18;;;;;;;9.95;4.55;;;9.00;99.90;;;;;;4950226;29;20027;-69
2022/04/07 00:19:44;;;;;;;9.50;4.68;;;9.10;99.90;;;;;;4952188;28;20039;-72
2022/04/07 00:22:10;;;;;;;10.85;4.38;;;9.10;99.90;;;;;;4965536;28;20522;-72
2022/04/07 00:24:36;;;;;;;8.27;5.00;;;9.10;99.90;;;;;;4968944;28;20063;-70
2022/04/07 00:27:02;;;;;;;9.23;4.75;;;9.10;99.90;;;;;;4968593;28;20128;-72
2022/04/07 00:29:28;;;;;;;6.20;3.50;;;9.20;99.90;;;;;;4985198;28;20043;-69
2022/04/07 00:31:57;;;;;;;10.88;4.38;;;9.20;99.90;;;;;;4988345;28;20114;-73
2022/04/07 00:34:23;;;;;;;7.50;4.03;;;9.20;99.90;;;;;;4969372;28;20066;-73
2022/04/07 00:36:49;;;;;;;7.88;2.85;;;9.20;99.90;;;;;;4988313;28;20027;-76
2022/04/07 00:39:14;;;;;;;8.43;3.65;;;9.20;99.90;;;;;;4988457;28;20027;-73
2022/04/07 00:41:42;;;;;;;5.70;3.03;;;9.30;99.90;;;;;;4987781;28;20125;-74
2022/04/07 00:44:08;;;;;;;6.70;3.20;;;9.30;99.90;;;;;;4987967;28;20038;-74
2022/04/07 00:46:38;;;;;;;7.82;3.45;;;9.30;99.90;;;;;;4986946;28;20049;-72
2022/04/07 00:49:04;;;;;;;8.80;4.22;;;9.30;99.90;;;;;;4969203;28;20081;-74
2022/04/07 00:51:30;;;;;;;9.80;3.72;;;9.30;99.90;;;;;;4987471;28;20042;-73
2022/04/07 00:53:57;;;;;;;11.00;3.47;;;9.30;99.90;;;;;;4970357;28;20031;-73
2022/04/07 00:56:26;;;;;;;6.13;3.25;;;9.30;99.90;;;;;;4970091;28;20099;-72
2022/04/07 00:58:53;;;;;;;4.05;3.05;;;9.30;99.90;;;;;;4969727;28;20114;-72
2022/04/07 01:01:27;;;;;;;7.38;3.10;;;9.30;99.90;;;;;;4981924;28;20023;-73
2022/04/07 01:03:54;;;;;;;5.25;2.95;;;9.30;99.90;;;;;;4951077;28;20043;-73
2022/04/07 01:06:21;;;;;;;5.38;3.65;;;9.40;99.90;;;;;;4951089;29;20078;-73
2022/04/07 01:08:51;;;;;;;8.65;3.97;;;9.40;99.90;;;;;;4968079;28;20027;-74
2022/04/07 01:11:19;;;;;;;6.35;3.97;;;9.30;99.90;;;;;;4968511;28;20047;-77
2022/04/07 01:13:46;;;;;;;6.80;3.10;;;9.30;99.90;;;;;;4984631;28;20062;-73
2022/04/07 01:16:14;;;;;;;9.18;3.42;;;9.30;99.90;;;;;;4968456;28;20043;-75
2022/04/07 01:18:46;;;;;;;8.88;3.95;;;9.30;99.90;;;;;;4978958;28;20038;-76
2022/04/07 01:21:14;;;;;;;5.82;3.38;;;9.20;99.90;;;;;;4987475;28;20035;-74
2022/04/07 01:23:48;;;;;;;13.27;5.22;;;9.20;99.90;;;;;;4987101;28;20129;-71
2022/04/07 01:26:15;;;;;;;;;;;9.20;99.90;;;;;;4987946;28;20051;-72
2022/04/07 01:28:47;;;;;;;7.68;3.72;;;9.20;99.90;;;;;;4969362;28;19928;-73
2022/04/07 01:31:13;;;;;;;5.45;2.88;;;9.20;99.90;;;;;;4987276;28;20061;-74
2022/04/07 01:33:38;;;;;;;8.50;3.95;;;9.20;99.90;;;;;;4986980;28;20051;-71
2022/04/07 01:36:05;;;;;;;6.78;3.58;;;9.30;99.90;;;;;;4986200;28;20035;-70
2022/04/07 01:38:31;;;;;;;5.95;3.50;;;9.30;99.90;;;;;;4983053;28;20034;-72
2022/04/07 01:40:57;;;;;;;14.93;3.97;;;9.30;99.90;;;;;;4987070;28;20031;-75
2022/04/07 01:43:32;;;;;;;17.10;4.45;;;9.30;99.90;;;;;;4969430;28;20034;-72
2022/04/07 01:45:57;;;;;;;6.85;3.80;;;9.30;99.90;;;;;;4967405;28;20035;-71
2022/04/07 01:48:24;;;;;;;9.00;4.75;;;9.40;99.90;;;;;;4967313;28;20031;-73
2022/04/07 01:50:51;;;;;;;9.65;4.15;;;9.30;99.90;;;;;;4966598;28;20031;-71
2022/04/07 01:53:18;;;;;;;6.80;4.45;;;9.30;99.90;;;;;;4986787;28;20110;-73
2022/04/07 01:55:45;;;;;;;9.85;4.63;;;9.20;99.90;;;;;;4987055;28;20035;-72
2022/04/07 01:58:11;;;;;;;15.00;6.28;;;9.10;99.90;;;;;;4986029;28;20050;-70
2022/04/07 02:00:40;;;;;;;15.43;6.45;;;9.10;99.90;;;;;;4986288;28;20038;-72
2022/04/07 02:03:07;;;;;;;14.38;6.45;;;9.00;99.90;;;;;;4967356;28;20026;-71
2022/04/07 02:05:35;;;;;;;15.07;6.35;;;8.90;99.90;;;;;;4966814;28;20043;-72
2022/04/07 02:08:01;;;;;;;12.57;5.75;;;8.90;99.90;;;;;;4967133;28;20050;-76
2022/04/07 02:10:28;;;;;;;14.98;5.88;;;8.90;99.90;;;;;;4949810;28;20027;-74
2022/04/07 02:12:54;;;;;;;10.32;4.63;;;8.90;99.90;;;;;;4949266;29;20373;-71
2022/04/07 02:15:20;;;;;;;9.52;5.35;;;8.80;99.90;;;;;;4949962;29;20087;-72
2022/04/07 02:17:46;;;;;;;6.68;4.45;;;8.90;99.90;;;;;;4967160;28;20035;-73
2022/04/07 02:20:12;;;;;;;10.25;5.93;;;8.90;99.90;;;;;;4966804;28;20031;-71
2022/04/07 02:22:38;;;;;;;24.23;6.43;;;8.90;99.90;;;;;;4949592;29;20155;-72
2022/04/07 02:25:04;;;;;;;8.77;5.47;;;8.90;99.90;;;;;;4966512;28;20055;-70
2022/04/07 02:27:37;;;;;;;9.35;5.70;;;8.90;99.90;;;;;;4966447;28;20031;-72
2022/04/07 02:30:05;;;;;;;10.88;5.05;;;9.00;99.90;;;;;;4967052;28;20051;-75
2022/04/07 02:32:31;;;;;;;11.32;5.60;;;9.00;99.90;;;;;;4949174;29;20027;-74
2022/04/07 02:34:56;;;;;;;14.40;5.30;;;9.00;99.90;;;;;;4949442;29;20571;-73
2022/04/07 02:37:25;;;;;;;8.65;5.05;;;9.10;99.90;;;;;;4966932;28;20027;-71
2022/04/07 02:39:52;;;;;;;7.25;4.07;;;9.10;99.90;;;;;;4966436;28;20090;-74
2022/04/07 02:42:18;;;;;;;21.10;5.47;;;9.10;99.90;;;;;;4966724;29;20027;-75
2022/04/07 02:44:44;;;;;;;9.23;4.63;;;9.20;99.90;;;;;;4950287;28;20030;-73
2022/04/07 02:47:09;;;;;;;7.47;4.68;;;9.10;99.90;;;;;;4985750;28;20031;-72
2022/04/07 02:49:35;;;;;;;9.05;4.03;;;9.10;99.90;;;;;;4978333;28;20038;-73
2022/04/07 02:52:01;;;;;;;7.80;4.07;;;9.10;99.90;;;;;;4985905;28;20031;-74
2022/04/07 02:54:26;;;;;;;9.68;4.30;;;9.10;99.90;;;;;;4970463;28;20086;-71
2022/04/07 02:56:52;;;;;;;7.72;4.28;;;9.10;99.90;;;;;;4966649;28;20031;-73
2022/04/07 02:59:17;;;;;;;10.13;4.03;;;9.00;99.90;;;;;;4966451;28;20027;-75
2022/04/07 03:01:43;;;;;;;11.30;4.28;;;9.10;99.90;;;;;;4966709;28;20380;-73
2022/04/07 03:04:09;;;;;;;6.63;3.70;;;9.10;99.90;;;;;;4966621;28;20116;-73
2022/04/07 03:06:35;;;;;;;5.38;3.70;;;9.20;99.90;;;;;;4984463;28;20062;-75
2022/04/07 03:09:00;;;;;;;6.38;3.33;;;9.20;99.90;;;;;;4986900;28;20031;-75
2022/04/07 03:11:26;;;;;;;7.60;3.08;;;9.10;99.90;;;;;;4989229;28;20094;-72
2022/04/07 03:13:52;;;;;;;6.22;3.47;;;9.00;99.90;;;;;;4971800;28;20038;-72
2022/04/07 03:16:19;;;;;;;9.40;3.33;;;9.00;99.90;;;;;;4989657;28;20126;-77
2022/04/07 03:18:44;;;;;;;4.43;2.95;;;9.00;99.90;;;;;;4972223;28;20038;-72
2022/04/07 03:21:10;;;;;;;7.63;3.00;;;9.00;99.90;;;;;;4971968;28;20074;-73
2022/04/07 03:23:35;;;;;;;6.03;3.30;;;9.00;99.90;;;;;;4989630;28;20098;-74
2022/04/07 03:26:02;;;;;;;7.80;3.58;;;9.00;99.90;;;;;;4989333;28;20049;-71
2022/04/07 03:28:27;;;;;;;11.98;3.63;;;9.00;99.90;;;;;;4988834;28;20065;-71
2022/04/07 03:30:53;;;;;;;8.85;3.35;;;9.00;99.90;;;;;;4988305;28;20035;-70
2022/04/07 03:33:19;;;;;;;4.57;2.90;;;9.00;99.90;;;;;;4989500;28;20027;-71
2022/04/07 03:35:45;;;;;;;8.18;2.88;;;9.00;99.90;;;;;;4989346;28;20090;-70
2022/04/07 03:38:11;;;;;;;7.22;3.78;;;8.90;99.90;;;;;;4971798;28;20023;-71
2022/04/07 03:40:36;;;;;;;11.00;2.58;;;8.90;99.90;;;;;;4971715;28;20027;-72
2022/04/07 03:43:03;;;;;;;12.43;4.03;;;8.90;99.90;;;;;;4971295;28;20019;-72
2022/04/07 03:45:28;;;;;;;3.95;2.22;;;8.90;99.90;;;;;;4989163;28;20035;-71
2022/04/07 03:47:54;;;;;;;9.85;3.45;;;8.90;99.90;;;;;;4989190;28;20094;-72
2022/04/07 03:50:21;;;;;;;4.90;2.75;;;8.90;99.90;;;;;;4988701;28;20038;-72
2022/04/07 03:52:47;;;;;;;4.88;2.50;;;8.80;99.90;;;;;;4970969;28;20038;-74
2022/04/07 03:55:13;;;;;;;3.55;1.88;;;8.80;99.90;;;;;;4985758;28;20359;-71
2022/04/07 03:57:38;;;;;;;4.80;3.03;;;8.70;99.90;;;;;;4972315;28;20038;-74
2022/04/07 04:00:05;;;;;;;4.93;2.50;;;8.70;99.90;;;;;;4983419;28;20062;-71
2022/04/07 04:02:31;;;;;;;5.97;2.90;;;8.70;99.90;;;;;;4970744;28;20099;-73
2022/04/07 04:04:59;;;;;;;4.95;2.42;;;8.60;99.90;;;;;;4970676;28;20022;-73
2022/04/07 04:07:25;;;;;;;4.63;2.53;;;8.70;99.90;;;;;;4971415;28;20034;-73
2022/04/07 04:09:51;;;;;;;6.50;3.00;;;8.60;99.90;;;;;;4988531;28;20027;-74
2022/04/07 04:12:17;;;;;;;5.97;3.10;;;8.60;99.90;;;;;;4988789;28;20035;-74
2022/04/07 04:14:46;;;;;;;5.43;3.47;;;8.60;99.90;;;;;;4971423;28;20050;-75
2022/04/07 04:17:12;;;;;;;12.02;3.65;;;8.60;99.90;;;;;;4988747;28;20030;-73
2022/04/07 04:19:38;;;;;;;7.35;3.25;;;8.70;99.90;;;;;;4988294;28;20043;-77
2022/04/07 04:22:04;;;;;;;11.90;4.78;;;8.70;99.90;;;;;;4988570;28;20031;-75
2022/04/07 04:24:29;;;;;;;5.93;3.08;;;8.70;99.90;;;;;;4988271;28;20027;-71
2022/04/07 04:26:57;;;;;;;12.80;3.83;;;8.80;99.90;;;;;;4987993;28;20035;-76
2022/04/07 04:29:22;;;;;;;9.57;2.88;;;8.80;99.90;;;;;;4987888;28;20110;-70
2022/04/07 04:31:48;;;;;;;5.78;2.90;;;8.80;99.90;;;;;;4987956;28;20031;-73
2022/04/07 04:34:14;;;;;;;3.83;1.75;;;8.90;99.90;;;;;;4988483;28;20027;-72
2022/04/07 04:36:44;;;;;;;8.38;2.75;;;8.80;99.90;;;;;;4988283;28;20045;-77
2022/04/07 04:39:10;;;;;;;7.85;2.97;;;8.80;99.90;;;;;;4987880;28;20114;-73
2022/04/07 04:41:35;;;;;;;4.43;1.83;;;8.70;99.90;;;;;;4988213;28;20035;-75
2022/04/07 04:44:02;;;;;;;3.78;2.10;;;8.70;99.90;;;;;;4970667;28;20022;-72
2022/04/07 04:46:27;;;;;;;9.02;2.67;;;8.70;99.90;;;;;;4987764;28;20045;-70
2022/04/07 04:48:54;;;;;;;6.57;2.17;;;8.60;99.90;;;;;;4985908;28;20027;-71
2022/04/07 04:51:20;;;;;;;5.30;2.25;;;8.60;99.90;;;;;;4970499;28;20027;-72
2022/04/07 04:53:46;;;;;;;4.95;2.40;;;8.60;99.90;;;;;;4987600;28;20046;-73
2022/04/07 04:56:11;;;;;;;7.82;1.48;;;8.60;99.90;;;;;;4970621;28;20073;-72
2022/04/07 04:58:37;;;;;;;4.35;1.83;;;8.60;99.90;;;;;;4987424;28;20023;-72
2022/04/07 05:01:03;;;;;;;3.42;1.95;;;8.60;99.90;;;;;;4987607;28;20023;-71
2022/04/07 05:03:28;;;;;;;6.85;2.53;;;8.60;99.90;;;;;;4986629;28;20113;-74
2022/04/07 05:05:54;;;;;;;4.57;2.15;;;8.60;99.90;;;;;;4987375;28;20042;-75
2022/04/07 05:08:20;;;;;;;3.30;1.98;;;8.60;99.90;;;;;;4987499;28;20054;-75
2022/04/07 05:10:46;;;;;;;7.03;1.98;;;8.60;99.90;;;;;;4987916;28;20057;-75
2022/04/07 05:13:11;;;;;;;3.15;2.22;;;8.60;99.90;;;;;;4987147;28;20054;-71
2022/04/07 05:15:39;;;;;;;9.57;2.95;;;8.50;99.90;;;;;;4986777;28;20030;-73
2022/04/07 05:18:05;;;;;;;3.80;2.83;;;8.60;99.90;;;;;;4986294;28;20030;-76
2022/04/07 05:20:30;;;;;;;4.10;2.25;;;8.50;99.90;;;;;;4985281;28;20034;-73
2022/04/07 05:22:56;;;;;;;3.40;1.88;;;8.60;99.90;;;;;;4980514;28;20038;-73
2022/04/07 05:25:22;;;;;;;5.35;2.92;;;8.60;99.90;;;;;;4975499;28;20047;-72
2022/04/07 05:27:48;;;;;;;2.30;1.63;;;8.60;99.90;;;;;;4979496;28;20051;-71
2022/04/07 05:30:15;;;;;;;6.55;1.83;;;8.60;99.90;;;;;;4979207;28;20023;-73
2022/04/07 05:32:42;;;;;;;6.35;2.22;;;8.60;99.90;;;;;;4980351;28;20053;-72
2022/04/07 05:35:10;;;;;;;4.68;2.22;;;8.70;99.90;;;;;;4967692;28;20035;-71
2022/04/07 05:37:36;;;;;;;5.50;2.10;;;8.70;99.90;;;;;;4985417;28;20031;-71
2022/04/07 05:40:03;;;;;;;5.75;2.85;;;8.70;99.90;;;;;;4986332;28;20045;-73
2022/04/07 05:42:29;;;;;;;5.20;2.17;;;8.80;99.90;;;;;;4985219;28;20026;-71
2022/04/07 05:45:04;;;;;;;7.85;2.70;;;8.80;99.90;;;;;;4982874;28;20105;-73
2022/04/07 05:47:30;;;;;;;10.80;3.67;;;8.80;99.90;;;;;;4977182;28;20045;-73
2022/04/07 05:49:56;;;;;;;4.43;2.47;;;8.90;99.90;;;;;;4986457;28;20102;-73
2022/04/07 05:52:22;;;;;;;8.48;2.75;;;9.00;99.90;;;;;;4982786;28;20143;-74
2022/04/07 05:54:48;;;;;;;12.73;4.07;;;9.00;99.90;;;;;;4976620;28;20042;-70
2022/04/07 05:57:14;;;;;;;8.70;5.43;;;9.00;99.90;;;;;;4984731;28;20045;-72
2022/04/07 05:59:39;;;;;;;16.23;4.20;;;9.10;99.90;;;;;;4966520;28;20034;-72
2022/04/07 06:02:05;;;;;;;8.75;3.80;;;9.10;99.90;;;;;;4970212;28;20023;-73
2022/04/07 06:04:31;;;;;;;5.45;2.55;;;9.20;99.90;;;;;;4985924;28;20074;-73
2022/04/07 06:06:56;;;;;;;10.65;2.90;;;9.20;99.90;;;;;;4981304;28;20137;-72
2022/04/07 06:09:22;;;;;;;8.63;2.85;;;9.30;99.90;;;;;;4971740;28;20026;-70
2022/04/07 06:11:48;;;;;;;7.45;2.97;;;9.40;99.90;;;;;;4977452;28;20043;-71
2022/04/07 06:14:14;;;;;;;6.80;3.97;;;9.30;99.90;;;;;;4966554;28;20121;-76
2022/04/07 06:16:39;;;;;;;13.32;2.95;;;9.30;99.90;;;;;;4984698;28;20085;-74
2022/04/07 06:19:05;;;;;;;9.68;2.75;;;9.30;99.90;;;;;;4980040;28;20034;-71
2022/04/07 06:21:30;;;;;;;4.05;2.17;;;9.30;99.90;;;;;;4971286;28;20559;-71
2022/04/07 06:23:57;;;;;;;10.63;3.03;;;9.30;99.90;;;;;;4965343;28;20057;-71
2022/04/07 06:26:23;;;;;;;4.28;1.70;;;9.30;99.90;;;;;;4985911;28;20045;-71
2022/04/07 06:28:49;;;;;;;17.90;2.13;;;9.30;99.90;;;;;;4990768;28;20059;-73
2022/04/07 06:31:15;;;;;;;6.68;2.33;;;9.30;99.90;;;;;;5001610;28;20056;-72
2022/04/07 06:33:40;;;;;;;6.65;2.20;;;9.30;99.90;;;;;;4986827;28;20031;-71
2022/04/07 06:36:06;;;;;;;2.45;1.50;;;9.20;99.90;;;;;;4986069;28;20026;-71
2022/04/07 06:38:33;;;;;;;3.55;1.75;;;9.30;99.90;;;;;;4983976;28;20035;-72
2022/04/07 06:41:00;;;;;;;4.20;1.77;;;9.20;99.90;;;;;;4980351;28;20038;-72
2022/04/07 06:43:26;;;;;;;4.20;1.75;;;9.10;99.90;;;;;;4984813;28;20034;-71
2022/04/07 06:45:52;;;;;;;3.75;1.45;;;9.10;99.90;;;;;;4985592;28;20054;-71
2022/04/07 06:48:17;;;;;;;3.55;1.83;;;9.00;99.90;;;;;;4984583;28;20054;-72
2022/04/07 06:50:44;;;;;;;7.88;2.10;;;9.00;99.90;;;;;;4980474;28;20063;-72
2022/04/07 06:53:11;;;;;;;12.82;2.97;;;8.90;99.90;;;;;;4970701;28;20031;-72
2022/04/07 06:55:38;;;;;;;8.80;2.55;;;8.80;99.90;;;;;;4980332;28;20027;-71
2022/04/07 06:58:06;;;;;;;4.25;1.95;;;8.80;99.90;;;;;;4982789;28;20034;-70
2022/04/07 07:00:34;;;;;;;10.55;2.47;;;8.70;99.90;;;;;;4983951;28;20115;-69
2022/04/07 07:03:02;;;;;;;8.25;2.80;;;8.70;99.90;;;;;;4984042;28;20118;-73
2022/04/07 07:05:30;;;;;;;11.00;2.17;;;8.60;99.90;;;;;;4967810;28;20098;-70
2022/04/07 07:07:56;;;;;;;6.78;2.47;;;8.50;99.90;;;;;;4984193;28;20126;-70
2022/04/07 07:10:23;;;;;;;5.00;2.10;;;8.60;99.90;;;;;;4978501;28;20027;-72
2022/04/07 07:12:50;;;;;;;4.60;2.33;;;8.50;99.90;;;;;;4983894;28;20027;-68
2022/04/07 07:15:15;;;;;;;13.00;2.55;;;8.50;99.90;;;;;;4966483;28;20031;-70
2022/04/07 07:17:41;;;;;;;3.60;2.25;;;8.50;99.90;;;;;;4948824;28;20039;-68
2022/04/07 07:20:10;;;;;;;13.77;2.80;;;8.40;99.90;;;;;;4970890;28;20031;-70
2022/04/07 07:22:36;;;;;;;5.15;3.00;;;8.40;99.90;;;;;;4978985;28;20046;-71
2022/04/07 07:25:02;;;;;;;7.32;3.15;;;8.40;99.90;;;;;;4984303;28;20081;-70
2022/04/07 07:27:34;;;;;;;9.57;3.33;;;8.40;99.90;;;;;;4985374;28;20105;-70
2022/04/07 07:30:00;;;;;;;15.82;3.33;;;8.40;99.90;;;;;;4984655;28;20058;-70
2022/04/07 07:32:25;;;;;;;7.57;2.53;;;8.40;99.90;;;;;;4984349;28;20090;-70
2022/04/07 07:34:51;;;;;;;11.90;2.75;;;8.40;99.90;;;;;;4984876;28;20086;-69
2022/04/07 07:37:18;;;;;;;4.07;2.42;;;8.40;99.90;;;;;;4984207;28;20026;-71
2022/04/07 07:39:44;;;;;;;11.50;3.17;;;8.40;99.90;;;;;;4966993;28;20053;-70
2022/04/07 07:42:10;;;;;;;6.10;2.78;;;8.40;99.90;;;;;;4983974;28;20856;-72
2022/04/07 07:44:35;;;;;;;12.65;3.03;;;8.40;99.90;;;;;;4983803;28;20416;-70
2022/04/07 07:47:01;;;;;;;2.92;1.70;;;8.40;99.90;;;;;;4984155;28;20130;-72
2022/04/07 07:49:27;;;;;;;3.05;1.77;;;8.40;99.90;;;;;;4978972;28;20023;-72
2022/04/07 07:51:53;;;;;;;4.00;2.15;;;8.50;99.90;;;;;;4978341;28;20042;-71
2022/04/07 07:54:18;;;;;;;4.10;1.48;;;8.50;99.90;;;;;;4979417;28;20046;-74
2022/04/07 07:56:44;;;;;;;1.08;0.52;;;7.80;99.90;;;;;;4961802;28;20035;-69
2022/04/07 07:59:09;;;;;;;1.15;0.43;;;7.00;99.90;;;;;;4982575;28;20030;-67
2022/04/07 08:01:35;;;;;;;1.02;0.10;;;6.70;99.90;;;;;;4981092;28;20028;-69
2022/04/07 08:04:01;;;;;;;0.30;0.17;;;6.40;99.90;;;;;;4976136;28;20030;-65
2022/04/07 08:06:27;;;;;;;1.85;0.52;;;6.20;99.90;;;;;;4976634;28;20031;-67
2022/04/07 08:08:54;;;;;;;0.17;0.17;;;6.00;99.90;;;;;;4977113;28;20026;-69
2022/04/07 08:11:19;;;;;;;1.63;0.63;;;5.80;99.90;;;;;;4968294;28;20041;-67
2022/04/07 08:13:45;;;;;;;0.63;0.30;;;5.70;99.90;;;;;;4984468;28;20105;-68
2022/04/07 08:16:10;;;;;;;0.40;0.22;;;5.70;99.90;;;;;;4986304;28;20035;-69
2022/04/07 08:18:36;;;;;;;0.30;0.20;;;5.70;99.90;;;;;;4983979;28;20093;-69
2022/04/07 08:21:02;;;;;;;0.95;0.32;;;5.60;99.90;;;;;;4985156;28;20421;-67
2022/04/07 08:23:27;;;;;;;0.40;0.20;;;5.70;99.90;;;;;;4986098;28;20030;-71
2022/04/07 08:25:54;;;;;;;0.68;0.40;;;5.80;99.90;;;;;;4986361;28;20538;-67
2022/04/07 08:28:20;;;;;;;1.13;0.55;;;5.60;99.90;;;;;;4941820;28;1069598;-70
2022/04/07 08:30:45;;;;;;;0.85;0.40;;;5.70;99.90;;;;;;4986698;28;20043;-67
2022/04/07 08:33:11;;;;;;;0.77;0.47;;;5.70;99.90;;;;;;4988117;28;20039;-68
2022/04/07 08:35:37;;;;;;;1.40;0.57;;;5.70;99.90;;;;;;4987960;28;20039;-69
2022/04/07 08:38:02;;;;;;;0.98;0.43;;;5.70;99.90;;;;;;4988013;28;20027;-68
2022/04/07 08:40:30;;;;;;;0.88;0.57;;;5.80;99.90;;;;;;4987159;28;20033;-67
2022/04/07 08:42:57;;;;;;;0.38;0.38;;;5.80;99.90;;;;;;4977942;28;20032;-69
2022/04/07 08:45:23;;;;;;;1.00;0.43;;;5.70;99.90;;;;;;4967404;28;20388;-69
2022/04/07 08:47:56;;;;;;;0.50;0.22;;;5.80;99.90;;;;;;4983969;28;20027;-70
2022/04/07 08:50:23;;;;;;;1.38;0.50;;;5.70;99.90;;;;;;4985931;28;20067;-69
2022/04/07 08:52:52;;;;;;;2.95;0.40;;;5.70;99.90;;;;;;4986256;28;20031;-68
2022/04/07 08:55:19;;;;;;;3.20;0.75;;;5.70;99.90;;;;;;4982991;28;20022;-69
2022/04/07 08:57:44;;;;;;;1.00;0.40;;;5.70;99.90;;;;;;4986765;28;20027;-66
2022/04/07 09:00:11;;;;;;;0.38;0.20;;;5.70;99.90;;;;;;4987139;28;20030;-69
2022/04/07 09:02:37;;;;;;;0.50;0.40;;;5.70;99.90;;;;;;4981463;28;20163;-67
2022/04/07 09:05:10;;;;;;;1.13;0.32;;;5.70;99.90;;;;;;4987150;28;20046;-70
2022/04/07 09:07:36;;;;;;;1.83;0.63;;;5.70;99.90;;;;;;4985671;28;20053;-69
2022/04/07 09:10:04;;;;;;;1.00;0.65;;;5.70;99.90;;;;;;4986659;28;20023;-67
2022/04/07 09:12:30;;;;;;;1.13;0.47;;;5.70;99.90;;;;;;4987199;28;20027;-68
2022/04/07 09:14:58;;;;;;;0.80;0.47;;;5.80;99.90;;;;;;4978200;28;20417;-68
2022/04/07 09:17:26;;;;;;;1.95;0.77;;;5.80;99.90;;;;;;4979300;28;20031;-69
2022/04/07 09:19:52;;;;;;;6.63;0.80;;;5.80;99.90;;;;;;4986439;28;20027;-70
2022/04/07 09:22:31;;;;;;;1.90;0.43;;;5.80;99.90;;;;;;4985415;28;20031;-67
2022/04/07 09:25:04;;;;;;;0.68;0.35;;;5.80;99.90;;;;;;4986206;28;20058;-67
2022/04/07 09:27:29;;;;;;;0.57;0.40;;;5.80;99.90;;;;;;4983092;28;20034;-68
2022/04/07 09:29:55;;;;;;;0.77;0.35;;;5.70;99.90;;;;;;4973990;28;20087;-70
2022/04/07 09:32:23;;;;;;;2.15;0.40;;;5.70;99.90;;;;;;4983785;28;20115;-69
2022/04/07 09:34:58;;;;;;;1.40;0.45;;;5.70;99.90;;;;;;4987362;28;20031;-68
2022/04/07 09:37:26;;;;;;;0.95;0.30;;;5.70;99.90;;;;;;4987002;28;20026;-69
2022/04/07 09:40:18;;;;;;;1.45;0.32;;;5.70;99.90;;;;;;4985292;28;20041;-68
2022/04/07 09:42:56;;;;;;;1.75;0.40;;;5.60;99.90;;;;;;4965999;28;20486;-69
2022/04/07 09:45:23;;;;;;;0.30;0.30;;;5.60;99.90;;;;;;4979181;28;20038;-67
2022/04/07 09:48:00;;;;;;;1.13;0.20;;;5.50;99.90;;;;;;4982058;28;20054;-70
2022/04/07 09:50:33;;;;;;;2.72;0.50;;;5.40;99.90;;;;;;4984396;28;20399;-72
2022/04/07 09:52:59;;;;;;;0.30;0.30;;;5.30;99.90;;;;;;4985251;28;20062;-69
2022/04/07 09:55:28;;;;;;;0.25;0.25;;;5.30;99.90;;;;;;4981656;28;20050;-71
2022/04/07 09:57:55;;;;;;;1.25;0.22;;;5.30;99.90;;;;;;4984648;28;20019;-68
2022/04/07 10:00:21;;;;;;;7.10;0.50;;;5.20;99.90;;;;;;4967080;28;20039;-69
2022/04/07 10:02:48;;;;;;;0.50;0.35;;;5.20;99.90;;;;;;4978696;28;20035;-67
2022/04/07 10:05:15;;;;;;;3.38;0.40;;;5.20;99.90;;;;;;4971791;28;20027;-66
2022/04/07 10:07:42;;;;;;;3.70;0.35;;;5.20;99.90;;;;;;4979779;28;20026;-68
2022/04/07 10:10:08;;;;;;;0.88;0.55;;;5.20;99.90;;;;;;4986365;28;20034;-69
2022/04/07 10:12:34;;;;;;;0.50;0.20;;;5.20;99.90;;;;;;4984535;28;20039;-69
2022/04/07 10:15:02;;;;;;;0.90;0.50;;;5.20;99.90;;;;;;4981413;28;20062;-67
2022/04/07 10:17:28;;;;;;;3.45;0.88;;;5.10;99.90;;;;;;4983753;28;20038;-70
2022/04/07 10:20:00;;;;;;;1.10;0.40;;;5.20;99.90;;;;;;4980577;28;20039;-68
2022/04/07 10:22:44;;;;;;;3.40;1.10;;;5.30;99.90;;;;;;4977425;28;20018;-66
2022/04/07 10:25:10;;;;;;;;;;;5.20;99.90;;;;;;4967380;28;20031;-67
2022/04/07 10:27:45;;;;;;;4.38;1.85;;;5.30;99.90;;;;;;4987748;28;19949;-72
2022/04/07 10:30:12;;;;;;;6.10;1.95;;;5.30;99.90;;;;;;5000866;28;20038;-69
2022/04/07 10:32:41;;;;;;;4.63;2.20;;;5.50;99.90;;;;;;4991816;28;20058;-67
2022/04/07 10:35:10;;;;;;;8.07;2.60;;;5.80;99.90;;;;;;4970569;28;20512;-68
2022/04/07 10:37:49;;;;;;;3.35;2.08;;;6.30;99.90;;;;;;4985777;28;20030;-67
2022/04/07 10:40:36;;;;;;;4.13;2.22;;;6.80;99.90;;;;;;4983650;28;20034;-68
2022/04/07 10:43:15;;;;;;;9.88;2.47;;;7.20;99.90;;;;;;4985478;28;20039;-69
2022/04/07 10:45:42;;;;;;;2.60;1.30;;;7.50;99.90;;;;;;4966935;28;20051;-68
2022/04/07 10:48:16;;;;;;;9.27;1.52;;;7.80;99.90;;;;;;4984413;28;20475;-72
2022/04/07 10:50:56;;;;;;;2.83;0.60;;;8.20;99.90;;;;;;4984548;28;20031;-70
2022/04/07 10:53:33;;;;;;;3.15;0.50;;;8.40;99.90;;;;;;4984849;28;20031;-71
2022/04/07 10:56:05;;;;;;;1.90;0.77;;;8.70;99.90;;;;;;4983971;28;20058;-70
2022/04/07 10:58:42;;;;;;;1.23;0.55;;;8.80;99.90;;;;;;4978314;28;20494;-69
2022/04/07 11:01:32;;;;;;;3.15;0.75;;;9.00;99.90;;;;;;4984136;28;20086;-69
2022/04/07 11:04:25;;;;;;;6.93;0.38;;;9.10;99.90;;;;;;4985005;28;20035;-68
2022/04/07 11:07:13;;;;;;;1.23;0.68;;;9.20;99.90;;;;;;4977938;28;20118;-71
2022/04/07 11:09:57;;;;;;;3.78;0.70;;;9.50;99.90;;;;;;4984530;28;20037;-67
2022/04/07 11:12:29;;;;;;;0.57;0.40;;;9.50;99.90;;;;;;4985013;28;20054;-71
2022/04/07 11:15:01;;;;;;;4.97;0.60;;;9.70;99.90;;;;;;4978191;28;20038;-71
2022/04/07 11:17:31;;;;;;;1.25;0.63;;;9.80;99.90;;;;;;4981741;28;20031;-68
2022/04/07 11:20:09;;;;;;;2.53;1.10;;;9.60;99.90;;;;;;4968606;28;20031;-69
2022/04/07 11:23:13;;;;;;;4.05;0.73;;;9.50;99.90;;;;;;4976829;28;20043;-70
2022/04/07 11:25:43;;;;;;;1.10;0.45;;;9.30;99.90;;;;;;4984316;28;20042;-69
2022/04/07 11:28:19;;;;;;;1.00;0.70;;;9.30;99.90;;;;;;4983889;28;20062;-70
2022/04/07 11:30:50;;;;;;;4.40;0.75;;;9.50;99.90;;;;;;4984236;28;20037;-68
2022/04/07 11:33:18;;;;;;;3.20;0.40;;;9.90;99.90;;;;;;4978945;28;20015;-68
2022/04/07 11:35:59;;;;;;;0.65;0.57;;;10.20;99.90;;;;;;4975414;28;20027;-71
2022/04/07 11:38:25;;;;;;;3.25;1.20;;;10.40;99.90;;;;;;4971567;28;20026;-70
2022/04/07 11:40:58;;;;;;;3.65;0.93;;;10.80;99.90;;;;;;4980450;28;20074;-70
2022/04/07 11:43:24;;;;;;;3.40;0.68;;;11.10;99.90;;;;;;4988175;28;20094;-69
2022/04/07 11:45:50;;;;;;;3.65;0.90;;;11.20;99.90;;;;;;4991765;28;20038;-70
2022/04/07 11:48:15;;;;;;;3.95;0.82;;;11.40;99.90;;;;;;4994294;28;20042;-69
2022/04/07 11:50:41;;;;;;;1.80;0.57;;;11.70;99.90;;;;;;4985823;28;20035;-70
2022/04/07 11:53:07;;;;;;;2.17;0.57;;;11.90;99.90;;;;;;4987074;28;20104;-70
2022/04/07 11:55:32;;;;;;;2.17;0.90;;;12.00;99.90;;;;;;4988139;28;20539;-70
2022/04/07 11:57:59;;;;;;;1.13;0.57;;;12.10;99.90;;;;;;4979179;28;20034;-69
2022/04/07 12:00:32;;;;;;;5.70;1.05;;;12.00;99.90;;;;;;4950615;28;20058;-67
2022/04/07 12:02:59;;;;;;;1.70;0.80;;;11.70;99.90;;;;;;4973697;28;20070;-71
2022/04/07 12:05:25;;;;;;;3.15;1.17;;;11.40;99.90;;;;;;4968167;28;20039;-70
2022/04/07 12:07:51;;;;;;;7.28;0.95;;;11.20;99.90;;;;;;4970364;28;20054;-71
2022/04/07 12:10:17;;;;;;;1.60;0.77;;;11.10;99.90;;;;;;4988596;28;20087;-70
2022/04/07 12:12:43;;;;;;;5.82;0.77;;;11.20;99.90;;;;;;4983494;28;20027;-72
2022/04/07 12:15:10;;;;;;;1.63;1.00;;;11.50;99.90;;;;;;4980255;28;20562;-68
2022/04/07 12:17:36;;;;;;;1.15;0.60;;;11.40;99.90;;;;;;4987735;28;20050;-67
2022/04/07 12:20:03;;;;;;;5.05;1.13;;;11.30;99.90;;;;;;4988489;28;20031;-70
2022/04/07 12:22:31;;;;;;;6.07;1.15;;;11.20;99.90;;;;;;4988627;28;20025;-70
2022/04/07 12:25:03;;;;;;;6.30;0.90;;;11.50;99.90;;;;;;4988406;28;20026;-70
2022/04/07 12:27:34;;;;;;;23.85;1.83;;;11.80;99.90;;;;;;4967741;28;20023;-73
2022/04/07 12:30:00;;;;;;;3.03;1.25;;;12.20;99.90;;;;;;4969232;28;20027;-72
2022/04/07 12:32:41;;;;;;;3.88;1.20;;;12.60;99.90;;;;;;4979594;28;20019;-73
2022/04/07 12:35:07;;;;;;;0.75;0.40;;;12.90;99.90;;;;;;4988184;28;20106;-70
2022/04/07 12:37:43;;;;;;;0.47;0.47;;;12.80;99.90;;;;;;4987665;28;20030;-71
2022/04/07 12:40:15;;;;;;;1.83;0.88;;;12.90;99.90;;;;;;4987514;28;20054;-71
2022/04/07 12:42:51;;;;;;;1.42;0.50;;;12.60;99.90;;;;;;4982809;28;20046;-70
2022/04/07 12:45:17;;;;;;;1.67;0.70;;;12.30;99.90;;;;;;4987770;28;20037;-72
2022/04/07 12:48:14;;;;;;;4.60;0.95;;;12.10;99.90;;;;;;4988079;28;20031;-72
2022/04/07 12:50:40;;;;;;;0.85;0.47;;;11.70;99.90;;;;;;4987841;28;20031;-71
2022/04/07 12:53:25;;;;;;;1.15;0.55;;;11.20;99.90;;;;;;4987664;28;20468;-73
2022/04/07 12:55:51;;;;;;;2.58;0.68;;;10.70;99.90;;;;;;4987827;28;20034;-71
2022/04/07 12:58:26;;;;;;;3.38;1.20;;;10.10;99.90;;;;;;4987713;28;20034;-70